createdAt,value
2018-03-07T00:00:51.077Z,39.67
2018-03-07T00:03:18.616Z,37.80
2018-03-07T00:05:46.122Z,40.25
2018-03-07T00:08:13.723Z,39.42
2018-03-07T00:10:41.242Z,38.17
2018-03-07T00:13:08.782Z,37.85
2018-03-07T00:15:36.452Z,40.00
2018-03-07T00:18:03.952Z,39.75
2018-03-07T00:20:31.514Z,38.30
2018-03-07T00:22:59.075Z,39.00
2018-03-07T00:25:26.705Z,39.22
2018-03-07T00:27:54.309Z,39.75
2018-03-07T00:30:21.832Z,39.35
2018-03-07T00:32:49.429Z,40.35
2018-03-07T00:35:16.977Z,40.50
2018-03-07T00:37:44.480Z,39.70
2018-03-07T00:40:12.008Z,40.25
2018-03-07T00:42:39.588Z,40.15
2018-03-07T00:45:07.935Z,38.83
2018-03-07T00:47:36.221Z,40.35
2018-03-07T00:50:04.526Z,40.08
2018-03-07T00:52:32.055Z,38.67
2018-03-07T00:54:59.684Z,40.53
2018-03-07T00:57:27.233Z,39.38
2018-03-07T00:59:54.764Z,41.03
2018-03-07T01:02:22.297Z,39.45
2018-03-07T01:04:49.816Z,39.20
2018-03-07T01:07:17.341Z,40.15
2018-03-07T01:09:44.856Z,42.85
2018-03-07T01:12:12.716Z,39.65
2018-03-07T01:14:41.769Z,41.85
2018-03-07T01:17:09.603Z,38.67
2018-03-07T01:19:37.883Z,38.72
2018-03-07T01:22:06.170Z,39.75
2018-03-07T01:24:33.714Z,40.33
2018-03-07T01:27:01.258Z,42.08
2018-03-07T01:29:28.889Z,38.92
2018-03-07T01:31:56.438Z,41.37
2018-03-07T01:34:23.981Z,37.28
2018-03-07T01:36:51.488Z,39.13
2018-03-07T01:39:18.998Z,38.95
2018-03-07T01:41:46.528Z,41.05
2018-03-07T01:44:14.091Z,39.97
2018-03-07T01:46:42.370Z,43.00
2018-03-07T01:49:10.656Z,42.50
2018-03-07T01:51:49.864Z,42.15
2018-03-07T01:54:17.382Z,41.35
2018-03-07T01:56:44.901Z,38.15
2018-03-07T01:59:13.197Z,37.80
2018-03-07T02:01:40.706Z,41.80
2018-03-07T02:04:08.220Z,43.38
2018-03-07T02:06:35.717Z,42.58
2018-03-07T02:09:03.268Z,41.90
2018-03-07T02:11:30.776Z,40.28
2018-03-07T02:13:59.071Z,41.05
2018-03-07T02:16:26.599Z,37.85
2018-03-07T02:18:54.871Z,42.38
2018-03-07T02:21:23.178Z,40.03
2018-03-07T02:23:50.685Z,42.03
2018-03-07T02:26:18.195Z,40.22
2018-03-07T02:28:45.732Z,41.37
2018-03-07T02:31:14.027Z,41.45
2018-03-07T02:33:41.532Z,38.70
2018-03-07T02:39:07.707Z,42.08
2018-03-07T02:41:35.214Z,41.28
2018-03-07T02:44:02.734Z,40.03
2018-03-07T02:46:30.266Z,39.22
2018-03-07T02:48:57.788Z,39.25
2018-03-07T02:51:25.322Z,41.72
2018-03-07T02:53:52.899Z,42.33
2018-03-07T02:56:21.171Z,41.83
2018-03-07T02:58:49.255Z,44.40
2018-03-07T03:01:16.781Z,43.42
2018-03-07T03:03:44.288Z,43.72
2018-03-07T03:06:11.805Z,42.62
2018-03-07T03:08:40.190Z,42.58
2018-03-07T03:11:07.736Z,45.00
2018-03-07T03:13:36.009Z,44.13
2018-03-07T03:16:04.296Z,45.58
2018-03-07T03:18:31.826Z,47.65
2018-03-07T03:20:59.355Z,46.03
2018-03-07T03:23:26.865Z,44.35
2018-03-07T03:25:55.142Z,44.63
2018-03-07T03:28:23.467Z,44.42
2018-03-07T03:30:51.012Z,42.65
2018-03-07T03:33:18.533Z,46.17
2018-03-07T03:35:46.053Z,40.70
2018-03-07T03:38:13.570Z,41.92
2018-03-07T03:40:41.079Z,45.10
2018-03-07T03:43:08.592Z,42.95
2018-03-07T03:45:36.870Z,42.55
2018-03-07T03:48:04.415Z,47.10
2018-03-07T03:50:31.922Z,40.78
2018-03-07T03:52:59.487Z,41.15
2018-03-07T03:55:27.017Z,44.70
2018-03-07T03:57:54.533Z,46.42
2018-03-07T04:00:22.062Z,41.00
2018-03-07T04:02:49.586Z,43.63
2018-03-07T04:05:17.095Z,41.67
2018-03-07T04:07:44.745Z,41.42
2018-03-07T04:10:12.343Z,42.75
2018-03-07T04:12:39.866Z,46.67
2018-03-07T04:15:07.393Z,42.78
2018-03-07T04:17:35.675Z,43.20
2018-03-07T04:20:03.189Z,42.70
2018-03-07T04:22:30.734Z,43.53
2018-03-07T04:24:58.240Z,45.83
2018-03-07T04:27:26.519Z,44.95
2018-03-07T04:29:54.793Z,41.28
2018-03-07T04:32:23.094Z,38.67
2018-03-07T04:34:50.612Z,41.72
2018-03-07T04:37:18.166Z,41.20
2018-03-07T04:39:45.694Z,41.10
2018-03-07T04:42:13.245Z,41.75
2018-03-07T04:44:40.785Z,37.55
2018-03-07T04:47:08.291Z,42.17
2018-03-07T04:49:35.849Z,42.62
2018-03-07T04:52:03.381Z,39.75
2018-03-07T04:54:30.940Z,41.95
2018-03-07T04:56:58.516Z,38.50
2018-03-07T04:59:26.043Z,41.88
2018-03-07T05:01:53.574Z,41.63
2018-03-07T05:04:21.855Z,43.17
2018-03-07T05:06:50.139Z,41.65
2018-03-07T05:09:18.415Z,41.35
2018-03-07T05:11:46.739Z,44.88
2018-03-07T05:14:14.247Z,45.30
2018-03-07T05:16:41.772Z,45.42
2018-03-07T05:19:09.279Z,44.60
2018-03-07T05:21:36.800Z,42.88
2018-03-07T05:24:04.293Z,43.75
2018-03-07T05:26:31.821Z,44.03
2018-03-07T05:28:59.346Z,41.28
2018-03-07T05:31:26.948Z,39.47
2018-03-07T05:33:55.265Z,44.97
2018-03-07T05:36:22.772Z,42.22
2018-03-07T05:38:50.282Z,42.20
2018-03-07T05:41:17.790Z,41.97
2018-03-07T05:43:45.308Z,42.25
2018-03-07T05:46:12.840Z,42.88
2018-03-07T05:48:40.347Z,40.10
2018-03-07T05:51:07.888Z,40.42
2018-03-07T05:53:35.449Z,40.90
2018-03-07T05:56:02.982Z,41.90
2018-03-07T05:58:31.281Z,42.65
2018-03-07T06:00:58.820Z,43.25
2018-03-07T06:03:27.100Z,45.28
2018-03-07T06:05:54.620Z,44.95
2018-03-07T06:08:22.139Z,41.05
2018-03-07T06:10:49.656Z,42.62
2018-03-07T06:13:17.167Z,43.10
2018-03-07T06:15:44.669Z,42.70
2018-03-07T06:18:12.190Z,41.37
2018-03-07T06:20:39.702Z,38.85
2018-03-07T06:23:07.250Z,41.08
2018-03-07T06:25:34.772Z,37.78
2018-03-07T06:28:02.275Z,38.70
2018-03-07T06:30:29.801Z,39.33
2018-03-07T06:32:57.310Z,39.50
2018-03-07T06:35:25.580Z,43.60
2018-03-07T06:37:53.897Z,40.42
2018-03-07T06:40:21.925Z,38.17
2018-03-07T06:42:51.110Z,40.10
2018-03-07T06:45:18.652Z,42.35
2018-03-07T06:47:46.230Z,37.97
2018-03-07T06:50:13.803Z,41.58
2018-03-07T06:52:42.084Z,39.22
2018-03-07T06:55:10.468Z,40.65
2018-03-07T06:57:37.980Z,41.55
2018-03-07T07:00:05.497Z,39.50
2018-03-07T07:02:33.013Z,39.83
2018-03-07T07:05:00.533Z,37.83
2018-03-07T07:07:28.166Z,41.88
2018-03-07T07:09:55.823Z,39.10
2018-03-07T07:12:23.330Z,40.97
2018-03-07T07:14:50.836Z,40.25
2018-03-07T07:17:19.123Z,40.12
2018-03-07T07:19:47.404Z,39.90
2018-03-07T07:22:15.834Z,39.03
2018-03-07T07:24:43.487Z,40.25
2018-03-07T07:27:11.102Z,41.47
2018-03-07T07:29:38.654Z,40.03
2018-03-07T07:32:06.983Z,38.45
2018-03-07T07:34:34.525Z,39.65
2018-03-07T07:37:02.039Z,44.22
2018-03-07T07:39:29.592Z,39.90
2018-03-07T07:41:57.116Z,41.20
2018-03-07T07:44:24.646Z,39.22
2018-03-07T07:46:52.955Z,44.38
2018-03-07T07:49:20.490Z,40.90
2018-03-07T07:51:48.005Z,47.05
2018-03-07T07:54:15.536Z,42.25
2018-03-07T07:56:43.111Z,44.15
2018-03-07T07:59:10.694Z,47.00
2018-03-07T08:01:38.205Z,48.45
2018-03-07T08:04:06.302Z,48.03
2018-03-07T08:06:34.644Z,47.83
2018-03-07T08:09:02.153Z,48.40
2018-03-07T08:11:29.687Z,50.70
2018-03-07T08:13:57.349Z,55.45
2018-03-07T08:16:24.872Z,53.92
2018-03-07T08:18:53.222Z,59.85
2018-03-07T08:21:20.743Z,55.45
2018-03-07T08:23:48.252Z,53.63
2018-03-07T08:26:16.582Z,58.28
2018-03-07T08:28:44.103Z,55.35
2018-03-07T08:31:11.672Z,53.90
2018-03-07T08:33:39.207Z,52.95
2018-03-07T08:36:06.719Z,52.40
2018-03-07T08:38:34.369Z,56.10
2018-03-07T08:41:01.896Z,51.80
2018-03-07T08:43:30.299Z,53.05
2018-03-07T08:45:57.843Z,56.05
2018-03-07T08:48:25.543Z,54.53
2018-03-07T08:50:53.052Z,53.47
2018-03-07T08:53:20.622Z,53.08
2018-03-07T08:55:48.904Z,52.05
2018-03-07T08:58:17.186Z,52.22
2018-03-07T09:00:45.474Z,46.40
2018-03-07T09:03:13.111Z,49.90
2018-03-07T09:05:41.457Z,49.83
2018-03-07T09:08:08.963Z,47.42
2018-03-07T09:10:36.597Z,49.20
2018-03-07T09:13:04.156Z,48.90
2018-03-07T09:15:31.694Z,45.65
2018-03-07T09:17:59.220Z,47.03
2018-03-07T09:20:26.742Z,43.38
2018-03-07T09:22:55.044Z,36.75
2018-03-07T09:25:23.328Z,42.38
2018-03-07T09:27:50.842Z,41.50
2018-03-07T09:30:18.376Z,42.92
2018-03-07T09:32:45.916Z,43.17
2018-03-07T09:35:13.460Z,42.35
2018-03-07T09:37:41.030Z,43.35
2018-03-07T09:40:08.555Z,28.00
2018-03-07T09:42:37.689Z,37.40
2018-03-07T09:45:05.216Z,39.55
2018-03-07T09:47:32.718Z,37.25
2018-03-07T09:50:00.236Z,31.23
2018-03-07T09:52:27.770Z,35.67
2018-03-07T09:54:55.311Z,31.87
2018-03-07T09:57:22.834Z,30.48
2018-03-07T09:59:50.387Z,22.42
2018-03-07T10:02:17.927Z,22.30
2018-03-07T10:04:45.453Z,23.25
2018-03-07T10:07:12.971Z,26.50
2018-03-07T10:09:41.479Z,30.15
2018-03-07T10:12:09.166Z,25.98
2018-03-07T10:14:36.733Z,26.35
2018-03-07T10:17:04.234Z,27.98
2018-03-07T10:19:32.510Z,23.10
2018-03-07T10:22:00.793Z,22.08
2018-03-07T10:24:28.452Z,21.62
2018-03-07T10:26:56.739Z,12.85
2018-03-07T10:29:24.270Z,19.23
2018-03-07T10:31:51.800Z,21.60
2018-03-07T10:34:19.365Z,21.90
2018-03-07T10:36:46.866Z,18.12
2018-03-07T10:39:14.447Z,16.85
2018-03-07T10:41:42.131Z,18.95
2018-03-07T10:44:09.660Z,18.37
2018-03-07T10:46:37.203Z,22.05
2018-03-07T10:49:04.687Z,22.17
2018-03-07T10:51:32.236Z,23.80
2018-03-07T10:53:59.750Z,22.10
2018-03-07T10:56:27.774Z,25.05
2018-03-07T10:58:55.324Z,23.10
2018-03-07T11:01:22.860Z,14.52
2018-03-07T11:03:50.360Z,16.70
2018-03-07T11:06:17.889Z,24.77
2018-03-07T11:08:46.166Z,26.55
2018-03-07T11:11:14.479Z,19.92
2018-03-07T11:13:42.002Z,14.75
2018-03-07T11:16:09.544Z,23.90
2018-03-07T11:18:37.850Z,25.23
2018-03-07T11:21:06.154Z,22.17
2018-03-07T11:23:33.681Z,23.15
2018-03-07T11:26:01.214Z,19.77
2018-03-07T11:28:28.735Z,21.27
2018-03-07T11:30:56.344Z,20.10
2018-03-07T11:33:23.867Z,19.95
2018-03-07T11:35:51.367Z,23.08
2018-03-07T11:38:18.871Z,22.58
2018-03-07T11:40:46.408Z,16.35
2018-03-07T11:43:13.971Z,23.38
2018-03-07T11:45:41.499Z,24.55
2018-03-07T11:48:09.139Z,21.20
2018-03-07T11:50:37.525Z,16.25
2018-03-07T11:53:05.112Z,26.10
2018-03-07T11:55:33.384Z,18.48
2018-03-07T11:58:01.916Z,17.67
2018-03-07T12:00:29.480Z,25.23
2018-03-07T12:02:57.092Z,24.63
2018-03-07T12:05:24.695Z,22.58
2018-03-07T12:07:52.227Z,25.40
2018-03-07T12:10:20.603Z,26.58
2018-03-07T12:12:48.914Z,26.25
2018-03-07T12:15:16.445Z,24.23
2018-03-07T12:17:43.960Z,20.23
2018-03-07T12:20:11.463Z,14.85
2018-03-07T12:22:38.982Z,19.00
2018-03-07T12:25:06.497Z,20.67
2018-03-07T12:27:34.076Z,25.10
2018-03-07T12:30:01.585Z,23.50
2018-03-07T12:32:29.127Z,18.20
2018-03-07T12:34:56.644Z,20.23
2018-03-07T12:37:24.163Z,23.65
2018-03-07T12:39:51.663Z,24.30
2018-03-07T12:42:19.200Z,21.23
2018-03-07T12:44:46.718Z,24.73
2018-03-07T12:47:14.241Z,22.27
2018-03-07T12:49:41.749Z,21.45
2018-03-07T12:52:09.261Z,27.83
2018-03-07T12:54:36.763Z,26.98
2018-03-07T12:57:04.302Z,31.95
2018-03-07T12:59:31.844Z,27.00
2018-03-07T13:01:59.386Z,30.08
2018-03-07T13:04:26.939Z,19.30
2018-03-07T13:06:54.497Z,33.67
2018-03-07T13:09:22.006Z,29.20
2018-03-07T13:11:50.284Z,32.40
2018-03-07T13:14:17.880Z,31.80
2018-03-07T13:16:45.413Z,32.75
2018-03-07T13:19:12.953Z,31.52
2018-03-07T13:21:40.451Z,33.25
2018-03-07T13:24:08.137Z,28.33
2018-03-07T13:26:35.652Z,37.10
2018-03-07T13:29:03.186Z,36.13
2018-03-07T13:31:30.695Z,35.47
2018-03-07T13:33:58.235Z,34.80
2018-03-07T13:36:25.777Z,33.08
2018-03-07T13:38:53.335Z,35.78
2018-03-07T13:41:21.631Z,40.12
2018-03-07T13:43:49.143Z,26.90
2018-03-07T13:46:16.675Z,36.25
2018-03-07T13:48:44.208Z,37.40
2018-03-07T13:51:11.731Z,42.38
2018-03-07T13:53:39.250Z,37.97
2018-03-07T13:56:06.848Z,38.97
2018-03-07T13:58:34.360Z,46.00
2018-03-07T14:01:01.911Z,37.35
2018-03-07T14:03:29.467Z,41.33
2018-03-07T14:05:56.999Z,27.92
2018-03-07T14:08:24.551Z,37.78
2018-03-07T14:10:52.059Z,42.30
2018-03-07T14:13:19.591Z,38.92
2018-03-07T14:15:47.679Z,24.58
2018-03-07T14:18:16.018Z,41.10
2018-03-07T14:20:43.600Z,43.33
2018-03-07T14:23:11.186Z,25.10
2018-03-07T14:25:38.732Z,35.22
2018-03-07T14:28:07.020Z,38.55
2018-03-07T14:30:35.351Z,39.17
2018-03-07T14:33:02.993Z,42.03
2018-03-07T14:35:30.539Z,37.33
2018-03-07T14:37:58.856Z,28.83
2018-03-07T14:40:26.435Z,24.92
2018-03-07T14:42:53.947Z,38.20
2018-03-07T14:45:21.538Z,33.22
2018-03-07T14:47:49.102Z,37.30
2018-03-07T14:50:16.703Z,33.35
2018-03-07T14:52:44.213Z,40.47
2018-03-07T14:55:11.728Z,39.25
2018-03-07T14:57:40.012Z,43.22
2018-03-07T15:00:09.188Z,35.08
2018-03-07T15:02:36.815Z,44.45
2018-03-07T15:05:04.328Z,31.67
2018-03-07T15:07:32.006Z,40.22
2018-03-07T15:09:59.520Z,38.95
2018-03-07T15:12:27.054Z,42.17
2018-03-07T15:14:54.599Z,33.00
2018-03-07T15:17:22.109Z,45.38
2018-03-07T15:19:49.623Z,35.30
2018-03-07T15:22:17.158Z,40.17
2018-03-07T15:24:44.751Z,35.60
2018-03-07T15:27:12.277Z,36.83
2018-03-07T15:29:39.829Z,37.00
2018-03-07T15:32:08.118Z,36.70
2018-03-07T15:34:36.387Z,22.85
2018-03-07T15:37:04.680Z,39.83
2018-03-07T15:39:32.197Z,45.45
2018-03-07T15:41:59.710Z,31.80
2018-03-07T15:44:27.250Z,39.00
2018-03-07T15:46:54.750Z,44.50
2018-03-07T15:49:22.265Z,40.15
2018-03-07T16:09:08.393Z,30.25
2018-03-07T16:11:35.906Z,25.70
2018-03-07T16:14:03.422Z,36.17
2018-03-07T16:16:30.922Z,34.05
2018-03-07T16:18:58.476Z,46.25
2018-03-07T16:21:26.005Z,44.70
2018-03-07T16:23:53.515Z,39.45
2018-03-07T16:26:21.945Z,28.48
2018-03-07T16:28:50.172Z,38.53
2018-03-07T16:31:17.696Z,33.05
2018-03-07T16:33:45.267Z,33.70
2018-03-07T16:36:12.810Z,37.17
2018-03-07T16:38:40.353Z,33.20
2018-03-07T16:41:07.883Z,39.72
2018-03-07T16:43:35.402Z,36.95
2018-03-07T16:46:03.016Z,28.95
2018-03-07T16:48:30.562Z,38.38
2018-03-07T16:50:58.855Z,35.22
2018-03-07T16:53:26.375Z,29.98
2018-03-07T16:55:54.023Z,32.92
2018-03-07T16:58:21.617Z,24.83
2018-03-07T17:00:49.921Z,37.00
2018-03-07T17:03:17.526Z,29.92
2018-03-07T17:05:45.051Z,35.83
2018-03-07T17:08:12.601Z,36.90
2018-03-07T17:10:40.222Z,31.15
2018-03-07T17:13:07.761Z,37.40
2018-03-07T17:15:35.327Z,43.60
2018-03-07T17:18:02.852Z,44.72
2018-03-07T17:20:30.388Z,38.78
2018-03-07T17:22:57.898Z,47.15
2018-03-07T17:25:25.439Z,41.28
2018-03-07T17:27:52.996Z,34.53
2018-03-07T17:30:20.515Z,36.78
2018-03-07T17:32:48.831Z,44.50
2018-03-07T17:35:16.347Z,48.10
2018-03-07T17:37:44.626Z,41.53
2018-03-07T17:40:12.957Z,43.70
2018-03-07T17:42:40.468Z,45.08
2018-03-07T17:45:08.042Z,43.65
2018-03-07T17:47:35.582Z,43.42
2018-03-07T17:50:03.181Z,39.95
2018-03-07T17:52:30.680Z,44.83
2018-03-07T17:54:58.239Z,36.50
2018-03-07T17:57:25.800Z,40.12
2018-03-07T17:59:53.335Z,37.10
2018-03-07T18:02:21.150Z,43.35
2018-03-07T18:04:48.694Z,23.70
2018-03-07T18:07:16.264Z,42.55
2018-03-07T18:09:43.798Z,44.65
2018-03-07T18:12:11.333Z,30.65
2018-03-07T18:14:38.900Z,38.83
2018-03-07T18:17:06.421Z,42.22
2018-03-07T18:19:38.049Z,36.15
2018-03-07T18:22:05.600Z,30.80
2018-03-07T18:24:33.098Z,43.75
2018-03-07T18:27:01.487Z,25.65
2018-03-07T18:29:29.028Z,33.13
2018-03-07T18:31:57.320Z,43.08
2018-03-07T18:34:24.852Z,43.47
2018-03-07T18:36:52.376Z,41.40
2018-03-07T18:39:19.909Z,43.60
2018-03-07T18:41:47.454Z,34.97
2018-03-07T18:44:15.004Z,32.10
2018-03-07T18:46:43.287Z,36.22
2018-03-07T18:49:11.567Z,44.97
2018-03-07T18:51:39.845Z,31.08
2018-03-07T18:54:08.071Z,35.45
2018-03-07T18:56:35.600Z,27.90
2018-03-07T18:59:03.136Z,44.50
2018-03-07T19:01:30.664Z,39.28
2018-03-07T19:03:58.268Z,38.47
2018-03-07T19:06:25.797Z,44.70
2018-03-07T19:08:53.313Z,44.00
2018-03-07T19:11:20.834Z,37.67
2018-03-07T19:13:49.133Z,40.97
2018-03-07T19:16:16.680Z,22.20
2018-03-07T19:18:44.962Z,41.85
2018-03-07T19:21:12.491Z,33.67
2018-03-07T19:23:40.012Z,34.95
2018-03-07T19:26:07.559Z,28.17
2018-03-07T19:28:35.212Z,37.58
2018-03-07T19:31:02.753Z,24.80
2018-03-07T19:33:30.288Z,25.65
2018-03-07T19:35:57.806Z,39.42
2018-03-07T19:38:25.352Z,40.50
2018-03-07T19:40:52.871Z,29.15
2018-03-07T19:43:21.205Z,32.88
2018-03-07T19:45:48.735Z,30.23
2018-03-07T19:48:16.279Z,31.77
2018-03-07T19:50:44.576Z,37.03
2018-03-07T19:53:12.116Z,30.08
2018-03-07T19:55:40.408Z,33.88
2018-03-07T19:58:07.961Z,41.13
2018-03-07T20:00:36.330Z,40.50
2018-03-07T20:03:03.861Z,27.90
2018-03-07T20:05:33.071Z,33.20
2018-03-07T20:08:00.976Z,34.92
2018-03-07T20:10:28.550Z,29.58
2018-03-07T20:12:56.099Z,31.02
2018-03-07T20:15:23.644Z,38.47
2018-03-07T20:17:51.957Z,29.25
2018-03-07T20:20:19.496Z,31.80
2018-03-07T20:22:48.854Z,37.55
2018-03-07T20:25:17.170Z,39.70
2018-03-07T20:27:44.704Z,39.38
2018-03-07T20:30:12.303Z,37.72
2018-03-07T20:32:39.837Z,43.75
2018-03-07T20:35:07.357Z,39.28
2018-03-07T20:37:34.914Z,30.98
2018-03-07T20:40:02.461Z,33.22
2018-03-07T20:42:30.074Z,35.58
2018-03-07T20:44:57.604Z,40.80
2018-03-07T20:47:25.135Z,28.45
2018-03-07T20:49:52.716Z,35.08
2018-03-07T20:52:20.237Z,29.45
2018-03-07T20:54:47.755Z,41.28
2018-03-07T20:57:15.297Z,38.75
2018-03-07T20:59:42.827Z,45.72
2018-03-07T21:02:10.345Z,34.60
2018-03-07T21:04:37.909Z,41.95
2018-03-07T21:07:06.343Z,38.83
2018-03-07T21:09:33.880Z,38.63
2018-03-07T21:12:01.395Z,44.83
2018-03-07T21:14:28.967Z,37.60
2018-03-07T21:16:57.283Z,43.85
2018-03-07T21:19:24.807Z,37.50
2018-03-07T21:21:52.344Z,34.78
2018-03-07T21:24:19.853Z,46.85
2018-03-07T21:26:47.363Z,40.90
2018-03-07T21:29:14.878Z,47.70
2018-03-07T21:31:42.416Z,40.03
2018-03-07T21:34:10.942Z,43.72
2018-03-07T21:36:38.612Z,45.88
2018-03-07T21:39:06.123Z,38.72
2018-03-07T21:41:33.656Z,32.97
2018-03-07T21:44:01.179Z,36.85
2018-03-07T21:46:28.730Z,33.90
2018-03-07T21:48:56.411Z,37.63
2018-03-07T21:51:23.952Z,29.55
2018-03-07T21:53:51.471Z,36.75
2018-03-07T21:56:19.752Z,37.70
2018-03-07T21:58:47.266Z,41.58
2018-03-07T22:01:14.786Z,46.22
2018-03-07T22:03:42.346Z,41.42
2018-03-07T22:06:09.882Z,34.13
2018-03-07T22:08:38.189Z,42.53
2018-03-07T22:11:05.716Z,44.83
2018-03-07T22:13:33.418Z,35.25
2018-03-07T22:16:00.945Z,47.08
2018-03-07T22:18:29.243Z,46.80
2018-03-07T22:20:56.755Z,45.58
2018-03-07T22:23:24.280Z,50.15
2018-03-07T22:25:51.824Z,56.47
2018-03-07T22:28:19.368Z,37.70
2018-03-07T22:30:46.942Z,54.10
2018-03-07T22:33:14.503Z,49.92
2018-03-07T22:35:42.021Z,53.92
2018-03-07T22:38:09.559Z,30.42
2018-03-07T22:40:37.098Z,56.37
2018-03-07T22:43:04.662Z,54.92
2018-03-07T22:45:32.192Z,42.20
2018-03-07T22:47:59.773Z,50.28
2018-03-07T22:50:27.348Z,55.40
2018-03-07T22:52:54.882Z,55.55
2018-03-07T22:55:22.468Z,53.42
2018-03-07T22:57:50.078Z,44.75
2018-03-07T23:00:30.208Z,48.38
2018-03-07T23:02:57.751Z,56.50
2018-03-07T23:05:25.264Z,55.38
2018-03-07T23:07:53.538Z,57.65
2018-03-07T23:10:21.835Z,56.90
2018-03-07T23:12:49.418Z,54.05
2018-03-07T23:15:17.004Z,52.95
2018-03-07T23:17:44.541Z,48.47
2018-03-07T23:20:12.069Z,48.25
2018-03-07T23:22:40.351Z,41.50
2018-03-07T23:25:07.898Z,59.13
2018-03-07T23:27:35.438Z,42.13
2018-03-07T23:30:02.959Z,52.30
2018-03-07T23:32:30.494Z,54.25
2018-03-07T23:34:58.028Z,43.65
2018-03-07T23:37:26.356Z,52.85
2018-03-07T23:39:53.913Z,49.97
2018-03-07T23:42:21.425Z,54.90
2018-03-07T23:44:49.724Z,57.10
2018-03-07T23:47:17.258Z,37.50
2018-03-07T23:49:44.806Z,55.30
2018-03-07T23:52:12.315Z,52.72
2018-03-07T23:54:39.857Z,51.42
2018-03-07T23:57:07.429Z,56.13
2018-03-07T23:59:34.955Z,48.80
